This is the latest recevied weather packets stored in our database for station/object KP4OZ. If no packets are shown the sender has not sent any weather packets the latest 10 day(s).
| Time | Temp. | Humidity | Pressure | Rain* | Wind** | Luminosity | Snow |
|---|---|---|---|---|---|---|---|
| 1777756040 | 31.67° C | 54% | 1014.5 hPa | 0 mm | - | - | - |
| 1777755737 | 31.67° C | 54% | 1014.4 hPa | 0 mm | - | - | - |
| 1777755434 | 31.67° C | 53% | 1014.5 hPa | 0 mm | - | - | - |
| 1777755130 | 31.67° C | 53% | 1014.3 hPa | 0 mm | - | - | - |
| 1777754828 | 31.67° C | 54% | 1014.3 hPa | 0 mm | - | - | - |
| 1777754525 | 31.67° C | 53% | 1014.3 hPa | 0 mm | - | - | - |
| 1777754222 | 31.67° C | 54% | 1014.3 hPa | 0 mm | - | - | - |
| 1777753921 | 32.22° C | 53% | 1014.1 hPa | 0 mm | - | - | - |
| 1777753614 | 31.67° C | 53% | 1014.4 hPa | 0 mm | - | - | - |
| 1777753313 | 32.22° C | 52% | 1014.4 hPa | 0 mm | - | - | - |
| 1777753010 | 32.22° C | 52% | 1014.5 hPa | 0 mm | - | - | - |
| 1777752706 | 32.22° C | 52% | 1014.4 hPa | 0 mm | - | - | - |
| 1777752402 | 32.22° C | 53% | 1014.4 hPa | 0 mm | - | - | - |
| 1777752099 | 32.22° C | 54% | 1014.3 hPa | 0 mm | - | - | - |
| 1777751797 | 32.78° C | 52% | 1014.4 hPa | 0 mm | - | - | - |
| 1777751493 | 32.22° C | 53% | 1014.5 hPa | 0 mm | - | - | - |
| 1777751190 | 32.78° C | 53% | 1014.3 hPa | 0 mm | - | - | - |
| 1777750887 | 32.78° C | 52% | 1014.2 hPa | 0 mm | - | - | - |
| 1777750583 | 32.78° C | 52% | 1014.5 hPa | 0 mm | - | - | - |
| 1777750280 | 32.78° C | 53% | 1014.5 hPa | 0 mm | - | - | - |
| 1777749975 | 32.22° C | 54% | 1014.3 hPa | 0 mm | - | - | - |
| 1777749674 | 31.67° C | 55% | 1014.5 hPa | 0 mm | - | - | - |
| 1777749370 | 32.22° C | 53% | 1014.6 hPa | 0 mm | - | - | - |
| 1777749068 | 33.33° C | 50% | 1014.7 hPa | 0 mm | - | - | - |
| 1777748765 | 32.78° C | 52% | 1014.7 hPa | 0 mm | - | - | - |
* Rain latest hour (hover to see other rain measurements)
** Current wind speed in m/s (hover to see current wind gust speed)